Map

Track Data

SID SEASON NUMBER BASIN SUBBASIN NAME ISO_TIME NATURE LAT LON WMO_WIND WMO_PRES WMO_AGENCY TRACK_TYPE DIST2LAND LANDFALL IFLAG USA_AGENCY USA_ATCF_ID USA_LAT USA_LON USA_RECORD USA_STATUS USA_WIND USA_PRES USA_SSHS USA_R34_NE USA_R34_SE USA_R34_SW USA_R34_NW USA_R50_NE USA_R50_SE USA_R50_SW USA_R50_NW USA_R64_NE USA_R64_SE USA_R64_SW USA_R64_NW USA_POCI USA_ROCI USA_RMW USA_EYE TOKYO_LAT TOKYO_LON TOKYO_GRADE TOKYO_WIND TOKYO_PRES TOKYO_R50_DIR TOKYO_R50_LONG TOKYO_R50_SHORT TOKYO_R30_DIR TOKYO_R30_LONG TOKYO_R30_SHORT TOKYO_LAND CMA_LAT CMA_LON CMA_CAT CMA_WIND CMA_PRES HKO_LAT HKO_LON HKO_CAT HKO_WIND HKO_PRES NEWDELHI_LAT NEWDELHI_LON NEWDELHI_GRADE NEWDELHI_WIND NEWDELHI_PRES NEWDELHI_CI NEWDELHI_DP NEWDELHI_POCI REUNION_LAT REUNION_LON REUNION_TYPE REUNION_WIND REUNION_PRES REUNION_TNUM REUNION_CI REUNION_RMW REUNION_R34_NE REUNION_R34_SE REUNION_R34_SW REUNION_R34_NW REUNION_R50_NE REUNION_R50_SE REUNION_R50_SW REUNION_R50_NW REUNION_R64_NE REUNION_R64_SE REUNION_R64_SW REUNION_R64_NW BOM_LAT BOM_LON BOM_TYPE BOM_WIND BOM_PRES BOM_TNUM BOM_CI BOM_RMW BOM_R34_NE BOM_R34_SE BOM_R34_SW BOM_R34_NW BOM_R50_NE BOM_R50_SE BOM_R50_SW BOM_R50_NW BOM_R64_NE BOM_R64_SE BOM_R64_SW BOM_R64_NW BOM_ROCI BOM_POCI BOM_EYE BOM_POS_METHOD BOM_PRES_METHOD NADI_LAT NADI_LON NADI_CAT NADI_WIND NADI_PRES WELLINGTON_LAT WELLINGTON_LON WELLINGTON_WIND WELLINGTON_PRES DS824_LAT DS824_LON DS824_STAGE DS824_WIND DS824_PRES TD9636_LAT TD9636_LON TD9636_STAGE TD9636_WIND TD9636_PRES TD9635_LAT TD9635_LON TD9635_WIND TD9635_PRES TD9635_ROCI NEUMANN_LAT NEUMANN_LON NEUMANN_CLASS NEUMANN_WIND NEUMANN_PRES MLC_LAT MLC_LON MLC_CLASS MLC_WIND MLC_PRES USA_GUST BOM_GUST BOM_GUST_PER REUNION_GUST REUNION_GUST_PER USA_SEAHGT USA_SEARAD_NE USA_SEARAD_SE USA_SEARAD_SW USA_SEARAD_NW STORM_SPEED STORM_DIR
1972331S07169 1973 129 SP MM NOT_NAMED 1972-11-26 00:00:00 TS -7.20000 168.900 main 824 794 O________OO_O_ jtwc_sh SH021973 -7.20000 168.900 -1 -7.20000 168.900 TC 35 -7.20000 168.900 2 -7.20000 168.900 TC 25 5 220
1972331S07169 1973 129 SP MM NOT_NAMED 1972-11-26 03:00:00 TS -7.39527 168.732 main 794 774 P________PP_P_ SH021973 -7.39000 168.763 -1 -7.39000 168.763 TC 35 -7.41106 168.713 2 -7.39003 168.690 TC 25 5 220
1972331S07169 1973 129 SP MM NOT_NAMED 1972-11-26 06:00:00 TS -7.60692 168.558 main 774 744 O________OP_O_ jtwc_sh SH021973 -7.60000 168.600 -1 -7.60000 168.600 TC 35 -7.62767 168.530 2 -7.60000 168.500 TC 25 6 218
1972331S07169 1973 129 SP MM NOT_NAMED 1972-11-26 09:00:00 TS -7.84574 168.375 main 744 710 P________PP_P_ SH021973 -7.84251 168.400 -1 -7.84251 168.400 TC 35 -7.85543 168.358 2 -7.84249 168.342 TC 27 6 216
1972331S07169 1973 129 SP MM NOT_NAMED 1972-11-26 12:00:00 TS -8.10000 168.200 main 710 691 O________OO_O_ jtwc_sh SH021973 -8.10000 168.200 -1 -8.10000 168.200 TC 35 -8.10000 168.200 2 -8.10000 168.200 TC 30 6 212
1972331S07169 1973 129 SP MM NOT_NAMED 1972-11-26 15:00:00 TS -8.35322 168.054 main 686 657 P________PP_P_ SH021973 -8.34998 168.050 -1 -8.34998 168.050 TC 35 -8.36296 168.057 2 -8.34999 168.057 TC 30 6 210
1972331S07169 1973 129 SP MM NOT_NAMED 1972-11-26 18:00:00 TS -8.60743 167.902 main 657 625 O________OP_O_ jtwc_sh SH021973 -8.60000 167.900 -1 -8.60000 167.900 TC 35 -8.62973 167.910 2 -8.60000 167.900 TC 30 6 212
1972331S07169 1973 129 SP MM NOT_NAMED 1972-11-26 21:00:00 TS -8.86914 167.727 main 625 597 P________PP_P_ SH021973 -8.86497 167.722 -1 -8.86497 167.722 TC 35 -8.88165 167.732 2 -8.86495 167.730 TC 32 6 219
1972331S07169 1973 129 SP MM NOT_NAMED 1972-11-27 00:00:00 TS -9.10000 167.500 main 597 559 O________OO_O_ jtwc_sh SH021973 -9.10000 167.500 -1 -9.10000 167.500 TC 35 -9.10000 167.500 2 -9.10000 167.500 TC 35 6 232
1972331S07169 1973 129 SP MM NOT_NAMED 1972-11-27 03:00:00 TS -9.26655 167.210 main 559 524 P________PP_P_ SH021973 -9.27244 167.237 -1 -9.27244 167.237 TC 35 -9.24883 167.186 2 -9.27250 167.180 TC 35 7 245
1972331S07169 1973 129 SP MM NOT_NAMED 1972-11-27 06:00:00 TS -9.39127 166.854 main 524 479 O________OP_O_ jtwc_sh SH021973 -9.40000 166.900 -1 -9.40000 166.900 TC 35 -9.36510 166.817 2 -9.40000 166.800 TC 35 8 254
1972331S07169 1973 129 SP MM NOT_NAMED 1972-11-27 09:00:00 TS -9.48972 166.438 main 468 423 P________PP_P_ SH021973 -9.49255 166.465 -1 -9.49255 166.465 TC 35 -9.47379 166.414 2 -9.49998 166.407 TC 35 9 256
1972331S07169 1973 129 SP MM NOT_NAMED 1972-11-27 12:00:00 TS -9.60000 166.000 main 423 375 O________OO_O_ jtwc_sh SH021973 -9.60000 166.000 -1 -9.60000 166.000 TC 35 -9.60000 166.000 2 -9.60000 166.000 TC 35 9 252
1972331S07169 1973 129 SP MM NOT_NAMED 1972-11-27 15:00:00 TS -9.76594 165.586 main 375 327 P________PP_P_ SH021973 -9.78493 165.592 -1 -9.78493 165.592 TC 35 -9.76647 165.559 2 -9.72746 165.600 TC 37 9 246
1972331S07169 1973 129 SP MM NOT_NAMED 1972-11-27 18:00:00 TS -9.96383 165.179 main 327 279 O________OP_O_ jtwc_sh SH021973 -10.0000 165.200 -1 -10.0000 165.200 TC 35 -9.95534 165.118 2 -9.90000 165.200 TC 40 9 244
1972331S07169 1973 129 SP MM NOT_NAMED 1972-11-27 21:00:00 TS -10.1717 164.755 main 279 232 P________PP_P_ SH021973 -10.1925 164.770 -1 -10.1925 164.770 TC 35 -10.1665 164.718 2 -10.1351 164.763 TC 40 9 240
1972331S07169 1973 129 SP MM NOT_NAMED 1972-11-28 00:00:00 TS -10.4000 164.400 main 232 208 O________OO_O_ jtwc_sh SH021973 -10.4000 164.400 -1 -10.4000 164.400 TC 35 -10.4000 164.400 2 -10.4000 164.400 TC 40 7 231
1972331S07169 1973 129 SP MM NOT_NAMED 1972-11-28 03:00:00 TS -10.6403 164.168 main 208 186 P________PP_P_ SH021973 -10.6349 164.140 -1 -10.6349 164.140 TC 35 -10.6491 164.193 2 -10.6424 164.197 TC 42 6 215
1972331S07169 1973 129 SP MM NOT_NAMED 1972-11-28 06:00:00 TS -10.9049 164.043 main 186 186 O________OP_O_ jtwc_sh SH021973 -10.9000 164.000 -1 -10.9000 164.000 TC 35 -10.9197 164.072 2 -10.9000 164.100 TC 45 6 197
1972331S07169 1973 129 SP MM NOT_NAMED 1972-11-28 09:00:00 TS -11.1957 163.996 main 191 191 P________PP_P_ SH021973 -11.1925 163.970 -1 -11.1925 163.970 TC 35 -11.2054 164.015 2 -11.1925 164.027 TC 45 6 183
1972331S07169 1973 129 SP MM NOT_NAMED 1972-11-28 12:00:00 TS -11.5000 164.000 main 201 201 O________OO_O_ jtwc_sh SH021973 -11.5000 164.000 -1 -11.5000 164.000 TC 35 -11.5000 164.000 2 -11.5000 164.000 TC 45 6 0
1972331S07169 1973 129 SP MM NOT_NAMED 1972-11-28 15:00:00 TS -11.7972 163.980 main 216 216 P________PP_P_ SH021973 -11.8000 163.993 -1 -11.8000 163.993 TC 35 -11.7886 163.949 2 -11.8000 163.985 TC 45 6 0
1972331S07169 1973 129 SP MM NOT_NAMED 1972-11-28 18:00:00 TS -12.0962 163.984 main 235 235 O________OP_O_ jtwc_sh SH021973 -12.1000 164.000 -1 -12.1000 164.000 TC 35 -12.0848 163.938 2 -12.1000 164.000 TC 45 6 177
1972331S07169 1973 129 SP MM NOT_NAMED 1972-11-28 21:00:00 TS -12.3896 164.015 main 257 257 P________PP_P_ SH021973 -12.3925 164.028 -1 -12.3925 164.028 TC 35 -12.3886 163.983 2 -12.3850 164.020 TC 47 6 169
1972331S07169 1973 129 SP MM NOT_NAMED 1972-11-29 00:00:00 TS -12.7000 164.100 main 289 289 O________OO_O_ jtwc_sh SH021973 -12.7000 164.100 -1 -12.7000 164.100 TC 35 -12.7000 164.100 2 -12.7000 164.100 TC 50 7 163
1972331S07169 1973 129 SP MM NOT_NAMED 1972-11-29 03:00:00 TS -13.0633 164.225 main 312 275 P________PP_P_ SH021973 -13.0499 164.198 -1 -13.0499 164.198 TC 35 -13.0458 164.250 2 -13.1075 164.255 TC 47 8 155
1972331S07169 1973 129 SP MM NOT_NAMED 1972-11-29 06:00:00 TS -13.4236 164.444 main 275 229 O________OP_O_ jtwc_sh SH021973 -13.4000 164.400 -1 -13.4000 164.400 TC 35 -13.3943 164.477 2 -13.5000 164.500 TC 45 9 142
1972331S07169 1973 129 SP MM NOT_NAMED 1972-11-29 09:00:00 TS -13.7363 164.762 main 220 166 P________PP_P_ SH021973 -13.7224 164.732 -1 -13.7224 164.732 TC 35 -13.7206 164.791 2 -13.7798 164.790 TC 45 9 128
1972331S07169 1973 129 SP MM NOT_NAMED 1972-11-29 12:00:00 TS -14.0000 165.200 main 166 109 O________OO_O_ jtwc_sh SH021973 -14.0000 165.200 -1 -14.0000 165.200 TC 35 -14.0000 165.200 2 -14.0000 165.200 TC 45 11 117
1972331S07169 1973 129 SP MM NOT_NAMED 1972-11-29 15:00:00 TS -14.2229 165.752 main 100 46 P________PP_P_ SH021973 -14.2300 165.770 -1 -14.2300 165.770 TC 35 -14.2089 165.707 2 -14.2226 165.762 TC 42 12 109
1972331S07169 1973 129 SP MM NOT_NAMED 1972-11-29 18:00:00 TS -14.3920 166.376 main 39 22 O________OP_O_ jtwc_sh SH021973 -14.4000 166.400 -1 -14.4000 166.400 TC 35 -14.3681 166.303 2 -14.4000 166.400 TC 40 12 104
1972331S07169 1973 129 SP MM NOT_NAMED 1972-11-29 21:00:00 TS -14.5132 166.987 main 46 46 P________PP_P_ SH021973 -14.5223 167.000 -1 -14.5223 167.000 TC 35 -14.4931 166.947 2 -14.5148 167.000 TC 40 12 100
1972331S07169 1973 129 SP MM NOT_NAMED 1972-11-30 00:00:00 TS -14.6000 167.600 main 69 69 O________OO_O_ jtwc_sh SH021973 -14.6000 167.600 -1 -14.6000 167.600 TC 35 -14.6000 167.600 2 -14.6000 167.600 TC 40 12 98
1972331S07169 1973 129 SP MM NOT_NAMED 1972-11-30 03:00:00 TS -14.6696 168.201 main 122 122 P________PP_P_ SH021973 -14.6423 168.200 -1 -14.6423 168.200 TC 35 -14.6937 168.205 2 -14.6998 168.200 TC 37 12 97
1972331S07169 1973 129 SP MM NOT_NAMED 1972-11-30 06:00:00 TS -14.7443 168.802 main 185 185 O________OP_O_ jtwc_sh SH021973 -14.7000 168.800 -1 -14.7000 168.800 TC 35 -14.7770 168.809 2 -14.8000 168.800 TC 35 12 99
1972331S07169 1973 129 SP MM NOT_NAMED 1972-11-30 09:00:00 TS -14.8528 169.402 main 232 232 P________PP_P_ SH021973 -14.8273 169.400 -1 -14.8273 169.400 TC 35 -14.8718 169.408 2 -14.8848 169.400 TC 35 12 102
1972331S07169 1973 129 SP MM NOT_NAMED 1972-11-30 12:00:00 TS -15.0000 170.000 main 276 276 O________OO_O_ jtwc_sh SH021973 -15.0000 170.000 -1 -15.0000 170.000 TC 35 -15.0000 170.000 2 -15.0000 170.000 TC 35 12 106
1972331S07169 1973 129 SP MM NOT_NAMED 1972-11-30 15:00:00 TS -15.1840 170.606 main 324 324 P________PP_P_ SH021973 -15.1849 170.608 -1 -15.1849 170.608 TC 35 -15.1889 170.602 2 -15.1774 170.608 TC 35 12 109
1972331S07169 1973 129 SP MM NOT_NAMED 1972-11-30 18:00:00 TS -15.4031 171.199 main 377 377 O________OP_O_ jtwc_sh SH021973 -15.4000 171.200 -1 -15.4000 171.200 TC 35 -15.4123 171.195 2 -15.4000 171.200 TC 35 12 113
1972331S07169 1973 129 SP MM NOT_NAMED 1972-11-30 21:00:00 TS -15.6511 171.767 main 432 432 P________PP_P_ SH021973 -15.6499 171.765 -1 -15.6499 171.765 TC 35 -15.6546 171.765 2 -15.6499 171.772 TC 32 12 115
1972331S07169 1973 129 SP MM NOT_NAMED 1972-12-01 00:00:00 TS -15.9000 172.300 main 482 482 O________OO_O_ jtwc_sh SH021973 -15.9000 172.300 -1 -15.9000 172.300 TC 35 -15.9000 172.300 2 -15.9000 172.300 TC 30 11 115
1972331S07169 1973 129 SP MM NOT_NAMED 1972-12-01 03:00:00 TS -16.1089 172.801 main 513 465 P________PP_P_ SH021973 -16.0999 172.823 -1 -16.0999 172.823 TC 35 -16.1361 172.791 2 -16.0998 172.765 TC 27 10 114
1972331S07169 1973 129 SP MM NOT_NAMED 1972-12-01 06:00:00 TS -16.3157 173.262 main 456 407 O________OP_O_ jtwc_sh SH021973 -16.3000 173.300 -1 -16.3000 173.300 TC 35 -16.3629 173.247 2 -16.3000 173.200 TC 25 10 117
1972331S07169 1973 129 SP MM NOT_NAMED 1972-12-01 09:00:00 TS -16.5490 173.690 main 407 355 P________PP_P_ SH021973 -16.5376 173.717 -1 -16.5376 173.717 TC 35 -16.5832 173.679 2 -16.5377 173.645 TC 25 9 121
1972331S07169 1973 129 SP MM NOT_NAMED 1972-12-01 12:00:00 TS -16.8000 174.100 main 355 O________OO_O_ jtwc_sh SH021973 -16.8000 174.100 -1 -16.8000 174.100 TC 35 -16.8000 174.100 2 -16.8000 174.100 TC 25 9 123

Digital Typhoon Data and Search

About IBTrACS Database

This database is a web-friendly format of International Best Track Archive for Climate Stewardship (IBTrACS), a global best track data archive curated by NOAA dating back to 1842.

Updated: 2021-11-26